sensor_id;sensor_type;location;lat;lon;timestamp;P1;durP1;ratioP1;P2;durP2;ratioP2
31128;SDS011;17777;48.770;8.944;2023-04-26T00:02:24;3.05;;;1.67;;
31128;SDS011;17777;48.770;8.944;2023-04-26T00:04:51;1.65;;;1.27;;
31128;SDS011;17777;48.770;8.944;2023-04-26T00:07:20;3.05;;;1.60;;
31128;SDS011;17777;48.770;8.944;2023-04-26T00:09:49;2.13;;;1.52;;
31128;SDS011;17777;48.770;8.944;2023-04-26T00:12:16;3.90;;;1.55;;
31128;SDS011;17777;48.770;8.944;2023-04-26T00:14:43;2.08;;;1.67;;
31128;SDS011;17777;48.770;8.944;2023-04-26T00:17:09;2.35;;;1.60;;
31128;SDS011;17777;48.770;8.944;2023-04-26T00:19:34;5.40;;;1.65;;
31128;SDS011;17777;48.770;8.944;2023-04-26T00:22:01;2.65;;;1.63;;
31128;SDS011;17777;48.770;8.944;2023-04-26T00:24:27;1.92;;;1.50;;
31128;SDS011;17777;48.770;8.944;2023-04-26T00:26:53;2.60;;;1.65;;
31128;SDS011;17777;48.770;8.944;2023-04-26T00:29:19;2.17;;;1.58;;
31128;SDS011;17777;48.770;8.944;2023-04-26T00:31:46;1.65;;;1.55;;
31128;SDS011;17777;48.770;8.944;2023-04-26T00:34:12;2.30;;;1.83;;
31128;SDS011;17777;48.770;8.944;2023-04-26T00:36:38;4.20;;;1.75;;
31128;SDS011;17777;48.770;8.944;2023-04-26T00:39:03;2.15;;;1.52;;
31128;SDS011;17777;48.770;8.944;2023-04-26T00:41:29;2.58;;;1.92;;
31128;SDS011;17777;48.770;8.944;2023-04-26T00:43:55;2.03;;;1.40;;
31128;SDS011;17777;48.770;8.944;2023-04-26T00:46:21;1.88;;;1.67;;
31128;SDS011;17777;48.770;8.944;2023-04-26T00:48:47;4.07;;;1.63;;
31128;SDS011;17777;48.770;8.944;2023-04-26T00:51:13;3.60;;;2.05;;
31128;SDS011;17777;48.770;8.944;2023-04-26T00:53:39;5.22;;;1.70;;
31128;SDS011;17777;48.770;8.944;2023-04-26T00:56:08;4.00;;;1.58;;
31128;SDS011;17777;48.770;8.944;2023-04-26T00:58:35;1.95;;;1.67;;
31128;SDS011;17777;48.770;8.944;2023-04-26T01:01:02;3.05;;;1.60;;
31128;SDS011;17777;48.770;8.944;2023-04-26T01:03:28;2.00;;;1.40;;
31128;SDS011;17777;48.770;8.944;2023-04-26T01:05:54;3.22;;;1.70;;
31128;SDS011;17777;48.770;8.944;2023-04-26T01:08:22;2.75;;;1.40;;
31128;SDS011;17777;48.770;8.944;2023-04-26T01:10:48;2.92;;;1.60;;
31128;SDS011;17777;48.770;8.944;2023-04-26T01:13:15;3.30;;;1.77;;
31128;SDS011;17777;48.770;8.944;2023-04-26T01:15:44;2.40;;;1.65;;
31128;SDS011;17777;48.770;8.944;2023-04-26T01:18:11;3.55;;;2.13;;
31128;SDS011;17777;48.770;8.944;2023-04-26T01:20:38;2.50;;;1.40;;
31128;SDS011;17777;48.770;8.944;2023-04-26T01:23:10;2.75;;;1.65;;
31128;SDS011;17777;48.770;8.944;2023-04-26T01:25:37;2.97;;;1.52;;
31128;SDS011;17777;48.770;8.944;2023-04-26T01:28:03;5.05;;;1.73;;
31128;SDS011;17777;48.770;8.944;2023-04-26T01:30:29;3.50;;;1.70;;
31128;SDS011;17777;48.770;8.944;2023-04-26T01:32:55;2.15;;;1.58;;
31128;SDS011;17777;48.770;8.944;2023-04-26T01:35:20;3.63;;;1.70;;
31128;SDS011;17777;48.770;8.944;2023-04-26T01:37:46;2.95;;;1.83;;
31128;SDS011;17777;48.770;8.944;2023-04-26T01:40:12;1.77;;;1.50;;
31128;SDS011;17777;48.770;8.944;2023-04-26T01:42:38;3.80;;;2.55;;
31128;SDS011;17777;48.770;8.944;2023-04-26T01:45:04;5.00;;;1.60;;
31128;SDS011;17777;48.770;8.944;2023-04-26T01:47:50;4.57;;;1.67;;
31128;SDS011;17777;48.770;8.944;2023-04-26T01:50:16;2.97;;;1.50;;
31128;SDS011;17777;48.770;8.944;2023-04-26T01:52:42;2.10;;;1.33;;
31128;SDS011;17777;48.770;8.944;2023-04-26T01:55:08;2.47;;;1.42;;
31128;SDS011;17777;48.770;8.944;2023-04-26T01:57:34;2.83;;;1.90;;
31128;SDS011;17777;48.770;8.944;2023-04-26T01:59:59;2.35;;;1.77;;
31128;SDS011;17777;48.770;8.944;2023-04-26T02:02:38;3.97;;;1.65;;
31128;SDS011;17777;48.770;8.944;2023-04-26T02:05:04;2.97;;;1.77;;
31128;SDS011;17777;48.770;8.944;2023-04-26T02:07:30;3.22;;;1.52;;
31128;SDS011;17777;48.770;8.944;2023-04-26T02:09:56;1.80;;;1.58;;
31128;SDS011;17777;48.770;8.944;2023-04-26T02:12:22;2.17;;;1.85;;
31128;SDS011;17777;48.770;8.944;2023-04-26T02:14:48;4.43;;;1.80;;
31128;SDS011;17777;48.770;8.944;2023-04-26T02:17:13;3.70;;;1.80;;
31128;SDS011;17777;48.770;8.944;2023-04-26T02:19:40;3.05;;;1.75;;
31128;SDS011;17777;48.770;8.944;2023-04-26T02:22:07;3.25;;;1.83;;
31128;SDS011;17777;48.770;8.944;2023-04-26T02:24:33;3.20;;;1.85;;
31128;SDS011;17777;48.770;8.944;2023-04-26T02:27:01;4.25;;;1.67;;
31128;SDS011;17777;48.770;8.944;2023-04-26T02:29:28;5.03;;;1.52;;
31128;SDS011;17777;48.770;8.944;2023-04-26T02:31:54;2.95;;;1.73;;
31128;SDS011;17777;48.770;8.944;2023-04-26T02:34:20;6.10;;;2.15;;
31128;SDS011;17777;48.770;8.944;2023-04-26T02:36:45;1.60;;;1.50;;
31128;SDS011;17777;48.770;8.944;2023-04-26T02:39:12;1.95;;;1.48;;
31128;SDS011;17777;48.770;8.944;2023-04-26T02:41:38;2.58;;;1.88;;
31128;SDS011;17777;48.770;8.944;2023-04-26T02:44:04;2.45;;;1.80;;
31128;SDS011;17777;48.770;8.944;2023-04-26T02:46:31;2.58;;;2.00;;
31128;SDS011;17777;48.770;8.944;2023-04-26T02:48:58;3.72;;;2.00;;
31128;SDS011;17777;48.770;8.944;2023-04-26T02:51:24;2.92;;;1.73;;
31128;SDS011;17777;48.770;8.944;2023-04-26T02:53:51;2.92;;;2.30;;
31128;SDS011;17777;48.770;8.944;2023-04-26T02:56:17;3.67;;;1.80;;
31128;SDS011;17777;48.770;8.944;2023-04-26T02:58:43;4.75;;;1.98;;
31128;SDS011;17777;48.770;8.944;2023-04-26T03:01:10;2.22;;;1.58;;
31128;SDS011;17777;48.770;8.944;2023-04-26T03:03:37;3.10;;;1.75;;
31128;SDS011;17777;48.770;8.944;2023-04-26T03:06:03;2.97;;;1.83;;
31128;SDS011;17777;48.770;8.944;2023-04-26T03:08:29;4.05;;;2.30;;
31128;SDS011;17777;48.770;8.944;2023-04-26T03:10:55;4.20;;;1.95;;
31128;SDS011;17777;48.770;8.944;2023-04-26T03:13:24;5.63;;;2.00;;
31128;SDS011;17777;48.770;8.944;2023-04-26T03:15:52;5.57;;;2.15;;
31128;SDS011;17777;48.770;8.944;2023-04-26T03:18:20;4.20;;;2.67;;
31128;SDS011;17777;48.770;8.944;2023-04-26T03:20:45;5.10;;;1.92;;
31128;SDS011;17777;48.770;8.944;2023-04-26T03:23:12;2.75;;;1.85;;
31128;SDS011;17777;48.770;8.944;2023-04-26T03:25:38;3.97;;;2.28;;
31128;SDS011;17777;48.770;8.944;2023-04-26T03:28:04;2.65;;;2.38;;
31128;SDS011;17777;48.770;8.944;2023-04-26T03:30:30;5.18;;;2.30;;
31128;SDS011;17777;48.770;8.944;2023-04-26T03:32:56;2.97;;;1.70;;
31128;SDS011;17777;48.770;8.944;2023-04-26T03:35:22;1.85;;;1.60;;
31128;SDS011;17777;48.770;8.944;2023-04-26T03:37:48;2.72;;;1.75;;
31128;SDS011;17777;48.770;8.944;2023-04-26T03:40:16;4.80;;;1.80;;
31128;SDS011;17777;48.770;8.944;2023-04-26T03:42:44;3.25;;;2.10;;
31128;SDS011;17777;48.770;8.944;2023-04-26T03:45:10;2.47;;;1.70;;
31128;SDS011;17777;48.770;8.944;2023-04-26T03:47:36;3.35;;;2.00;;
31128;SDS011;17777;48.770;8.944;2023-04-26T03:50:01;3.15;;;1.90;;
31128;SDS011;17777;48.770;8.944;2023-04-26T03:52:28;4.53;;;1.70;;
31128;SDS011;17777;48.770;8.944;2023-04-26T03:54:54;2.25;;;1.50;;
31128;SDS011;17777;48.770;8.944;2023-04-26T03:57:20;2.25;;;1.67;;
31128;SDS011;17777;48.770;8.944;2023-04-26T03:59:46;2.63;;;1.88;;
31128;SDS011;17777;48.770;8.944;2023-04-26T04:02:12;2.10;;;1.52;;
31128;SDS011;17777;48.770;8.944;2023-04-26T04:04:39;3.22;;;1.77;;
31128;SDS011;17777;48.770;8.944;2023-04-26T04:07:04;5.80;;;1.83;;
31128;SDS011;17777;48.770;8.944;2023-04-26T04:09:31;3.88;;;1.92;;
31128;SDS011;17777;48.770;8.944;2023-04-26T04:11:57;2.80;;;1.95;;
31128;SDS011;17777;48.770;8.944;2023-04-26T04:14:23;3.03;;;1.73;;
31128;SDS011;17777;48.770;8.944;2023-04-26T04:16:49;2.95;;;1.75;;
31128;SDS011;17777;48.770;8.944;2023-04-26T04:19:15;4.35;;;2.28;;
31128;SDS011;17777;48.770;8.944;2023-04-26T04:21:41;4.18;;;2.20;;
31128;SDS011;17777;48.770;8.944;2023-04-26T04:24:07;3.50;;;2.03;;
31128;SDS011;17777;48.770;8.944;2023-04-26T04:26:33;2.38;;;1.98;;
31128;SDS011;17777;48.770;8.944;2023-04-26T04:28:59;2.42;;;1.92;;
31128;SDS011;17777;48.770;8.944;2023-04-26T04:31:34;2.35;;;1.73;;
31128;SDS011;17777;48.770;8.944;2023-04-26T04:34:00;2.70;;;1.90;;
31128;SDS011;17777;48.770;8.944;2023-04-26T04:36:26;3.08;;;2.30;;
31128;SDS011;17777;48.770;8.944;2023-04-26T04:38:52;2.63;;;2.00;;
31128;SDS011;17777;48.770;8.944;2023-04-26T04:41:18;4.20;;;2.17;;
31128;SDS011;17777;48.770;8.944;2023-04-26T04:43:47;3.30;;;1.90;;
31128;SDS011;17777;48.770;8.944;2023-04-26T04:46:13;2.22;;;1.70;;
31128;SDS011;17777;48.770;8.944;2023-04-26T04:48:40;2.22;;;1.90;;
31128;SDS011;17777;48.770;8.944;2023-04-26T04:51:07;6.10;;;2.25;;
31128;SDS011;17777;48.770;8.944;2023-04-26T04:53:35;2.15;;;1.95;;
31128;SDS011;17777;48.770;8.944;2023-04-26T04:56:01;4.18;;;2.30;;
31128;SDS011;17777;48.770;8.944;2023-04-26T04:58:27;6.97;;;1.85;;
31128;SDS011;17777;48.770;8.944;2023-04-26T05:00:53;2.25;;;1.83;;
31128;SDS011;17777;48.770;8.944;2023-04-26T05:03:28;4.22;;;2.17;;
31128;SDS011;17777;48.770;8.944;2023-04-26T05:05:54;2.33;;;2.13;;
31128;SDS011;17777;48.770;8.944;2023-04-26T05:08:19;3.58;;;2.20;;
31128;SDS011;17777;48.770;8.944;2023-04-26T05:10:46;3.15;;;2.63;;
31128;SDS011;17777;48.770;8.944;2023-04-26T05:13:12;2.83;;;2.30;;
31128;SDS011;17777;48.770;8.944;2023-04-26T05:15:38;3.00;;;2.30;;
31128;SDS011;17777;48.770;8.944;2023-04-26T05:18:03;4.88;;;2.63;;
31128;SDS011;17777;48.770;8.944;2023-04-26T05:20:29;3.10;;;2.40;;
31128;SDS011;17777;48.770;8.944;2023-04-26T05:22:55;3.28;;;2.33;;
31128;SDS011;17777;48.770;8.944;2023-04-26T05:25:21;5.60;;;2.70;;
31128;SDS011;17777;48.770;8.944;2023-04-26T05:27:49;3.70;;;2.25;;
31128;SDS011;17777;48.770;8.944;2023-04-26T05:30:24;3.33;;;2.42;;
31128;SDS011;17777;48.770;8.944;2023-04-26T05:33:10;2.78;;;2.33;;
31128;SDS011;17777;48.770;8.944;2023-04-26T05:35:46;4.90;;;2.50;;
31128;SDS011;17777;48.770;8.944;2023-04-26T05:38:13;3.17;;;2.47;;
31128;SDS011;17777;48.770;8.944;2023-04-26T05:40:39;4.88;;;2.40;;
31128;SDS011;17777;48.770;8.944;2023-04-26T05:43:05;3.88;;;2.38;;
31128;SDS011;17777;48.770;8.944;2023-04-26T05:45:33;3.03;;;2.05;;
31128;SDS011;17777;48.770;8.944;2023-04-26T05:47:59;5.03;;;2.75;;
31128;SDS011;17777;48.770;8.944;2023-04-26T05:50:25;4.07;;;2.67;;
31128;SDS011;17777;48.770;8.944;2023-04-26T05:52:51;3.50;;;2.40;;
31128;SDS011;17777;48.770;8.944;2023-04-26T05:55:18;3.55;;;3.00;;
31128;SDS011;17777;48.770;8.944;2023-04-26T05:57:45;4.60;;;2.88;;
31128;SDS011;17777;48.770;8.944;2023-04-26T06:00:11;5.90;;;3.33;;
31128;SDS011;17777;48.770;8.944;2023-04-26T06:02:41;6.55;;;3.35;;
31128;SDS011;17777;48.770;8.944;2023-04-26T06:05:12;6.38;;;3.67;;
31128;SDS011;17777;48.770;8.944;2023-04-26T06:07:38;3.90;;;3.42;;
31128;SDS011;17777;48.770;8.944;2023-04-26T06:10:04;9.00;;;4.20;;
31128;SDS011;17777;48.770;8.944;2023-04-26T06:12:32;7.32;;;4.10;;
31128;SDS011;17777;48.770;8.944;2023-04-26T06:14:59;6.70;;;4.57;;
31128;SDS011;17777;48.770;8.944;2023-04-26T06:17:26;5.15;;;3.80;;
31128;SDS011;17777;48.770;8.944;2023-04-26T06:19:52;5.03;;;3.97;;
31128;SDS011;17777;48.770;8.944;2023-04-26T06:22:18;8.95;;;4.03;;
31128;SDS011;17777;48.770;8.944;2023-04-26T06:24:44;7.95;;;4.60;;
31128;SDS011;17777;48.770;8.944;2023-04-26T06:27:10;6.47;;;4.28;;
31128;SDS011;17777;48.770;8.944;2023-04-26T06:29:38;5.00;;;4.18;;
31128;SDS011;17777;48.770;8.944;2023-04-26T06:32:05;10.15;;;4.93;;
31128;SDS011;17777;48.770;8.944;2023-04-26T06:34:31;6.25;;;4.40;;
31128;SDS011;17777;48.770;8.944;2023-04-26T06:36:57;5.28;;;4.03;;
31128;SDS011;17777;48.770;8.944;2023-04-26T06:39:25;7.00;;;4.13;;
31128;SDS011;17777;48.770;8.944;2023-04-26T06:41:51;4.97;;;3.63;;
31128;SDS011;17777;48.770;8.944;2023-04-26T06:44:24;5.57;;;3.35;;
31128;SDS011;17777;48.770;8.944;2023-04-26T06:46:57;5.32;;;3.47;;
31128;SDS011;17777;48.770;8.944;2023-04-26T06:49:24;4.82;;;3.38;;
31128;SDS011;17777;48.770;8.944;2023-04-26T06:51:50;6.00;;;3.25;;
31128;SDS011;17777;48.770;8.944;2023-04-26T06:54:17;4.43;;;3.05;;
31128;SDS011;17777;48.770;8.944;2023-04-26T06:56:43;5.63;;;3.20;;
31128;SDS011;17777;48.770;8.944;2023-04-26T06:59:09;4.80;;;3.35;;
31128;SDS011;17777;48.770;8.944;2023-04-26T07:01:35;5.32;;;2.85;;
31128;SDS011;17777;48.770;8.944;2023-04-26T07:04:01;4.38;;;2.63;;
31128;SDS011;17777;48.770;8.944;2023-04-26T07:06:31;3.50;;;2.70;;
31128;SDS011;17777;48.770;8.944;2023-04-26T07:08:58;2.95;;;2.38;;
31128;SDS011;17777;48.770;8.944;2023-04-26T07:11:25;3.83;;;2.53;;
31128;SDS011;17777;48.770;8.944;2023-04-26T07:13:51;5.75;;;2.78;;
31128;SDS011;17777;48.770;8.944;2023-04-26T07:16:16;4.03;;;2.95;;
31128;SDS011;17777;48.770;8.944;2023-04-26T07:18:42;4.97;;;2.97;;
31128;SDS011;17777;48.770;8.944;2023-04-26T07:21:08;4.65;;;2.88;;
31128;SDS011;17777;48.770;8.944;2023-04-26T07:23:34;5.28;;;2.85;;
31128;SDS011;17777;48.770;8.944;2023-04-26T07:26:00;4.60;;;2.70;;
31128;SDS011;17777;48.770;8.944;2023-04-26T07:28:28;3.38;;;2.35;;
31128;SDS011;17777;48.770;8.944;2023-04-26T07:30:55;7.78;;;2.20;;
31128;SDS011;17777;48.770;8.944;2023-04-26T07:33:22;5.00;;;2.63;;
31128;SDS011;17777;48.770;8.944;2023-04-26T07:35:57;5.78;;;2.50;;
31128;SDS011;17777;48.770;8.944;2023-04-26T07:38:25;3.75;;;2.40;;
31128;SDS011;17777;48.770;8.944;2023-04-26T07:40:51;4.38;;;2.53;;
31128;SDS011;17777;48.770;8.944;2023-04-26T07:43:21;5.85;;;2.80;;
31128;SDS011;17777;48.770;8.944;2023-04-26T07:45:47;5.47;;;2.60;;
31128;SDS011;17777;48.770;8.944;2023-04-26T07:48:13;3.00;;;2.08;;
31128;SDS011;17777;48.770;8.944;2023-04-26T07:50:39;5.10;;;2.75;;
31128;SDS011;17777;48.770;8.944;2023-04-26T07:53:04;3.45;;;2.10;;
31128;SDS011;17777;48.770;8.944;2023-04-26T07:55:30;3.20;;;2.22;;
31128;SDS011;17777;48.770;8.944;2023-04-26T07:57:56;3.92;;;2.03;;
31128;SDS011;17777;48.770;8.944;2023-04-26T08:00:22;4.25;;;2.40;;
31128;SDS011;17777;48.770;8.944;2023-04-26T08:02:48;4.20;;;2.28;;
31128;SDS011;17777;48.770;8.944;2023-04-26T08:05:14;4.07;;;2.50;;
31128;SDS011;17777;48.770;8.944;2023-04-26T08:07:41;4.63;;;2.17;;
31128;SDS011;17777;48.770;8.944;2023-04-26T08:10:07;5.18;;;2.70;;
31128;SDS011;17777;48.770;8.944;2023-04-26T08:12:35;2.53;;;1.95;;
31128;SDS011;17777;48.770;8.944;2023-04-26T08:15:02;5.72;;;2.42;;
31128;SDS011;17777;48.770;8.944;2023-04-26T08:17:29;4.35;;;2.17;;
31128;SDS011;17777;48.770;8.944;2023-04-26T08:19:56;3.25;;;2.10;;
31128;SDS011;17777;48.770;8.944;2023-04-26T08:22:25;6.25;;;2.58;;
31128;SDS011;17777;48.770;8.944;2023-04-26T08:24:53;3.22;;;2.28;;
31128;SDS011;17777;48.770;8.944;2023-04-26T08:27:20;4.32;;;2.08;;
31128;SDS011;17777;48.770;8.944;2023-04-26T08:29:46;2.20;;;2.00;;
31128;SDS011;17777;48.770;8.944;2023-04-26T08:32:12;4.50;;;2.10;;
31128;SDS011;17777;48.770;8.944;2023-04-26T08:34:38;2.80;;;2.22;;
31128;SDS011;17777;48.770;8.944;2023-04-26T08:37:07;3.05;;;2.30;;
31128;SDS011;17777;48.770;8.944;2023-04-26T08:39:35;3.50;;;2.20;;
31128;SDS011;17777;48.770;8.944;2023-04-26T08:42:05;5.22;;;2.58;;
31128;SDS011;17777;48.770;8.944;2023-04-26T08:44:41;2.72;;;1.83;;
31128;SDS011;17777;48.770;8.944;2023-04-26T08:47:15;4.15;;;2.17;;
31128;SDS011;17777;48.770;8.944;2023-04-26T08:50:01;5.25;;;2.05;;
31128;SDS011;17777;48.770;8.944;2023-04-26T08:52:29;6.13;;;2.42;;
31128;SDS011;17777;48.770;8.944;2023-04-26T08:54:56;4.45;;;2.08;;
31128;SDS011;17777;48.770;8.944;2023-04-26T08:57:23;2.05;;;1.63;;
31128;SDS011;17777;48.770;8.944;2023-04-26T08:59:50;2.45;;;1.60;;
31128;SDS011;17777;48.770;8.944;2023-04-26T09:02:20;2.53;;;1.65;;
31128;SDS011;17777;48.770;8.944;2023-04-26T09:04:48;3.10;;;2.20;;
31128;SDS011;17777;48.770;8.944;2023-04-26T09:07:19;4.00;;;1.70;;
31128;SDS011;17777;48.770;8.944;2023-04-26T09:09:48;2.80;;;1.63;;
31128;SDS011;17777;48.770;8.944;2023-04-26T09:12:18;2.63;;;1.52;;
31128;SDS011;17777;48.770;8.944;2023-04-26T09:14:45;1.67;;;1.52;;
31128;SDS011;17777;48.770;8.944;2023-04-26T09:17:28;4.47;;;1.88;;
31128;SDS011;17777;48.770;8.944;2023-04-26T09:19:57;2.33;;;1.40;;
31128;SDS011;17777;48.770;8.944;2023-04-26T09:22:34;2.75;;;1.55;;
31128;SDS011;17777;48.770;8.944;2023-04-26T09:25:01;3.83;;;1.98;;
31128;SDS011;17777;48.770;8.944;2023-04-26T09:27:36;3.28;;;1.73;;
31128;SDS011;17777;48.770;8.944;2023-04-26T09:30:05;4.07;;;1.63;;
31128;SDS011;17777;48.770;8.944;2023-04-26T09:32:54;2.72;;;1.83;;
31128;SDS011;17777;48.770;8.944;2023-04-26T09:38:00;2.28;;;1.58;;
31128;SDS011;17777;48.770;8.944;2023-04-26T09:40:34;1.75;;;1.50;;
31128;SDS011;17777;48.770;8.944;2023-04-26T09:43:03;4.55;;;1.73;;
31128;SDS011;17777;48.770;8.944;2023-04-26T09:48:18;2.53;;;1.80;;
31128;SDS011;17777;48.770;8.944;2023-04-26T09:51:15;3.55;;;1.48;;
31128;SDS011;17777;48.770;8.944;2023-04-26T09:53:40;3.13;;;1.60;;
31128;SDS011;17777;48.770;8.944;2023-04-26T09:58:57;2.97;;;1.52;;
31128;SDS011;17777;48.770;8.944;2023-04-26T10:01:29;3.72;;;2.17;;
31128;SDS011;17777;48.770;8.944;2023-04-26T10:03:55;6.05;;;2.10;;
31128;SDS011;17777;48.770;8.944;2023-04-26T10:06:22;2.90;;;1.98;;
31128;SDS011;17777;48.770;8.944;2023-04-26T10:08:49;3.40;;;1.67;;
31128;SDS011;17777;48.770;8.944;2023-04-26T10:11:14;1.35;;;1.20;;
31128;SDS011;17777;48.770;8.944;2023-04-26T10:13:42;2.90;;;1.77;;
31128;SDS011;17777;48.770;8.944;2023-04-26T10:16:08;3.40;;;1.75;;
31128;SDS011;17777;48.770;8.944;2023-04-26T10:18:34;3.17;;;1.70;;
31128;SDS011;17777;48.770;8.944;2023-04-26T10:21:42;4.15;;;2.10;;
31128;SDS011;17777;48.770;8.944;2023-04-26T10:23:55;3.40;;;1.77;;
31128;SDS011;17777;48.770;8.944;2023-04-26T10:29:21;2.55;;;1.70;;
31128;SDS011;17777;48.770;8.944;2023-04-26T10:34:29;4.78;;;2.20;;
31128;SDS011;17777;48.770;8.944;2023-04-26T10:37:12;6.20;;;2.40;;
31128;SDS011;17777;48.770;8.944;2023-04-26T10:39:43;2.40;;;2.05;;
31128;SDS011;17777;48.770;8.944;2023-04-26T10:44:51;3.67;;;2.25;;
31128;SDS011;17777;48.770;8.944;2023-04-26T10:47:34;2.57;;;1.83;;
31128;SDS011;17777;48.770;8.944;2023-04-26T10:52:36;2.53;;;1.83;;
31128;SDS011;17777;48.770;8.944;2023-04-26T10:55:40;4.68;;;2.05;;
31128;SDS011;17777;48.770;8.944;2023-04-26T10:58:25;4.88;;;2.10;;
31128;SDS011;17777;48.770;8.944;2023-04-26T11:01:05;3.28;;;1.88;;
31128;SDS011;17777;48.770;8.944;2023-04-26T11:04:28;3.15;;;1.83;;
31128;SDS011;17777;48.770;8.944;2023-04-26T11:06:46;4.47;;;1.77;;
31128;SDS011;17777;48.770;8.944;2023-04-26T11:09:47;2.55;;;1.58;;
31128;SDS011;17777;48.770;8.944;2023-04-26T11:12:13;4.18;;;1.65;;
31128;SDS011;17777;48.770;8.944;2023-04-26T11:14:40;3.08;;;1.60;;
31128;SDS011;17777;48.770;8.944;2023-04-26T11:17:09;3.35;;;1.58;;
31128;SDS011;17777;48.770;8.944;2023-04-26T11:19:36;2.50;;;1.55;;
31128;SDS011;17777;48.770;8.944;2023-04-26T11:22:05;2.20;;;1.63;;
31128;SDS011;17777;48.770;8.944;2023-04-26T11:24:32;1.85;;;1.30;;
31128;SDS011;17777;48.770;8.944;2023-04-26T11:27:09;1.77;;;1.20;;
31128;SDS011;17777;48.770;8.944;2023-04-26T11:29:36;3.60;;;1.77;;
31128;SDS011;17777;48.770;8.944;2023-04-26T11:32:02;4.15;;;2.05;;
31128;SDS011;17777;48.770;8.944;2023-04-26T11:34:32;3.63;;;1.80;;
31128;SDS011;17777;48.770;8.944;2023-04-26T11:37:03;1.73;;;1.27;;
31128;SDS011;17777;48.770;8.944;2023-04-26T11:39:30;4.30;;;1.40;;
31128;SDS011;17777;48.770;8.944;2023-04-26T11:42:03;2.63;;;1.52;;
31128;SDS011;17777;48.770;8.944;2023-04-26T11:44:37;2.80;;;1.25;;
31128;SDS011;17777;48.770;8.944;2023-04-26T11:47:04;2.53;;;1.10;;
31128;SDS011;17777;48.770;8.944;2023-04-26T11:49:34;3.95;;;1.38;;
31128;SDS011;17777;48.770;8.944;2023-04-26T11:52:02;1.52;;;1.33;;
31128;SDS011;17777;48.770;8.944;2023-04-26T11:54:29;3.63;;;0.98;;
31128;SDS011;17777;48.770;8.944;2023-04-26T11:56:57;5.00;;;1.30;;
31128;SDS011;17777;48.770;8.944;2023-04-26T11:59:24;2.15;;;1.20;;
31128;SDS011;17777;48.770;8.944;2023-04-26T12:01:55;1.52;;;1.00;;
31128;SDS011;17777;48.770;8.944;2023-04-26T12:04:28;3.28;;;1.20;;
31128;SDS011;17777;48.770;8.944;2023-04-26T12:06:55;1.02;;;0.90;;
31128;SDS011;17777;48.770;8.944;2023-04-26T12:09:30;2.45;;;1.13;;
31128;SDS011;17777;48.770;8.944;2023-04-26T12:11:57;1.50;;;1.20;;
31128;SDS011;17777;48.770;8.944;2023-04-26T12:14:29;4.97;;;1.40;;
31128;SDS011;17777;48.770;8.944;2023-04-26T12:16:59;2.70;;;1.30;;
31128;SDS011;17777;48.770;8.944;2023-04-26T12:19:27;2.47;;;1.17;;
31128;SDS011;17777;48.770;8.944;2023-04-26T12:21:57;2.28;;;1.08;;
31128;SDS011;17777;48.770;8.944;2023-04-26T12:24:23;3.00;;;1.25;;
31128;SDS011;17777;48.770;8.944;2023-04-26T12:26:54;1.55;;;1.05;;
31128;SDS011;17777;48.770;8.944;2023-04-26T12:29:20;2.33;;;0.90;;
31128;SDS011;17777;48.770;8.944;2023-04-26T12:31:46;2.85;;;1.50;;
31128;SDS011;17777;48.770;8.944;2023-04-26T12:34:12;1.95;;;1.05;;
31128;SDS011;17777;48.770;8.944;2023-04-26T12:36:39;2.45;;;0.98;;
31128;SDS011;17777;48.770;8.944;2023-04-26T12:39:09;3.83;;;1.30;;
31128;SDS011;17777;48.770;8.944;2023-04-26T12:41:37;3.78;;;1.30;;
31128;SDS011;17777;48.770;8.944;2023-04-26T12:44:05;1.38;;;1.17;;
31128;SDS011;17777;48.770;8.944;2023-04-26T12:46:32;2.17;;;0.82;;
31128;SDS011;17777;48.770;8.944;2023-04-26T12:48:58;3.20;;;1.45;;
31128;SDS011;17777;48.770;8.944;2023-04-26T12:51:24;1.52;;;0.90;;
31128;SDS011;17777;48.770;8.944;2023-04-26T12:53:51;1.98;;;1.00;;
31128;SDS011;17777;48.770;8.944;2023-04-26T12:56:16;1.88;;;1.00;;
31128;SDS011;17777;48.770;8.944;2023-04-26T12:58:42;2.38;;;1.10;;
31128;SDS011;17777;48.770;8.944;2023-04-26T13:01:08;2.10;;;1.10;;
31128;SDS011;17777;48.770;8.944;2023-04-26T13:03:36;1.70;;;1.10;;
31128;SDS011;17777;48.770;8.944;2023-04-26T13:06:03;0.70;;;0.70;;
31128;SDS011;17777;48.770;8.944;2023-04-26T13:08:29;1.60;;;0.93;;
31128;SDS011;17777;48.770;8.944;2023-04-26T13:10:55;1.48;;;0.90;;
31128;SDS011;17777;48.770;8.944;2023-04-26T13:13:21;1.58;;;0.98;;
31128;SDS011;17777;48.770;8.944;2023-04-26T13:15:46;2.00;;;1.20;;
31128;SDS011;17777;48.770;8.944;2023-04-26T13:18:12;1.30;;;1.00;;
31128;SDS011;17777;48.770;8.944;2023-04-26T13:20:39;1.67;;;0.88;;
31128;SDS011;17777;48.770;8.944;2023-04-26T13:23:05;3.90;;;1.08;;
31128;SDS011;17777;48.770;8.944;2023-04-26T13:25:31;2.95;;;1.20;;
31128;SDS011;17777;48.770;8.944;2023-04-26T13:27:57;1.15;;;1.00;;
31128;SDS011;17777;48.770;8.944;2023-04-26T13:30:23;3.45;;;1.10;;
31128;SDS011;17777;48.770;8.944;2023-04-26T13:32:49;4.20;;;1.10;;
31128;SDS011;17777;48.770;8.944;2023-04-26T13:35:15;1.65;;;1.02;;
31128;SDS011;17777;48.770;8.944;2023-04-26T13:37:41;1.98;;;1.00;;
31128;SDS011;17777;48.770;8.944;2023-04-26T13:40:07;2.22;;;1.00;;
31128;SDS011;17777;48.770;8.944;2023-04-26T13:42:35;2.05;;;0.95;;
31128;SDS011;17777;48.770;8.944;2023-04-26T13:45:01;2.60;;;0.90;;
31128;SDS011;17777;48.770;8.944;2023-04-26T13:47:33;2.42;;;1.10;;
31128;SDS011;17777;48.770;8.944;2023-04-26T13:49:59;2.25;;;1.13;;
31128;SDS011;17777;48.770;8.944;2023-04-26T13:52:25;1.02;;;0.88;;
31128;SDS011;17777;48.770;8.944;2023-04-26T13:54:52;1.30;;;1.00;;
31128;SDS011;17777;48.770;8.944;2023-04-26T13:57:18;2.42;;;1.10;;
31128;SDS011;17777;48.770;8.944;2023-04-26T13:59:44;1.38;;;1.10;;
31128;SDS011;17777;48.770;8.944;2023-04-26T14:02:10;1.30;;;0.95;;
31128;SDS011;17777;48.770;8.944;2023-04-26T14:04:36;1.65;;;0.90;;
31128;SDS011;17777;48.770;8.944;2023-04-26T14:07:03;1.70;;;1.27;;
31128;SDS011;17777;48.770;8.944;2023-04-26T14:09:30;2.55;;;1.05;;
31128;SDS011;17777;48.770;8.944;2023-04-26T14:11:56;1.50;;;1.00;;
31128;SDS011;17777;48.770;8.944;2023-04-26T14:14:21;2.42;;;1.00;;
31128;SDS011;17777;48.770;8.944;2023-04-26T14:16:48;1.95;;;1.00;;
31128;SDS011;17777;48.770;8.944;2023-04-26T14:19:13;2.65;;;0.90;;
31128;SDS011;17777;48.770;8.944;2023-04-26T14:21:40;1.77;;;0.90;;
31128;SDS011;17777;48.770;8.944;2023-04-26T14:24:06;3.85;;;1.15;;
31128;SDS011;17777;48.770;8.944;2023-04-26T14:26:32;1.10;;;1.00;;
31128;SDS011;17777;48.770;8.944;2023-04-26T14:28:59;1.83;;;0.93;;
31128;SDS011;17777;48.770;8.944;2023-04-26T14:31:25;1.98;;;1.00;;
31128;SDS011;17777;48.770;8.944;2023-04-26T14:33:52;2.13;;;0.90;;
31128;SDS011;17777;48.770;8.944;2023-04-26T14:36:18;1.52;;;1.02;;
31128;SDS011;17777;48.770;8.944;2023-04-26T14:38:44;1.65;;;0.80;;
31128;SDS011;17777;48.770;8.944;2023-04-26T14:41:14;1.98;;;0.85;;
31128;SDS011;17777;48.770;8.944;2023-04-26T14:43:47;1.48;;;1.05;;
31128;SDS011;17777;48.770;8.944;2023-04-26T14:46:13;2.92;;;0.98;;
31128;SDS011;17777;48.770;8.944;2023-04-26T14:48:39;1.55;;;1.10;;
31128;SDS011;17777;48.770;8.944;2023-04-26T14:51:05;3.53;;;1.48;;
31128;SDS011;17777;48.770;8.944;2023-04-26T14:53:30;2.08;;;0.88;;
31128;SDS011;17777;48.770;8.944;2023-04-26T14:55:57;3.15;;;1.13;;
31128;SDS011;17777;48.770;8.944;2023-04-26T14:58:23;2.63;;;1.20;;
31128;SDS011;17777;48.770;8.944;2023-04-26T15:00:49;1.98;;;1.20;;
31128;SDS011;17777;48.770;8.944;2023-04-26T15:03:16;1.92;;;0.88;;
31128;SDS011;17777;48.770;8.944;2023-04-26T15:05:42;2.42;;;1.00;;
31128;SDS011;17777;48.770;8.944;2023-04-26T15:08:08;1.63;;;1.05;;
31128;SDS011;17777;48.770;8.944;2023-04-26T15:10:33;1.65;;;0.88;;
31128;SDS011;17777;48.770;8.944;2023-04-26T15:13:00;0.90;;;0.80;;